Time;durP1;ratioP1;P1;durP2;ratioP2;P2;SDS_P1;SDS_P2;PMS_P1;PMS_P2;Temp;Humidity;BMP_temperature;BMP_pressure;BME280_temperature;BME280_humidity;BME280_pressure;Samples;Min_cycle;Max_cycle;Signal;HPM_P1;HPM_P2
2022/01/26 00:07:05;;;;;;;101.82;41.63;;;3.90;99.90;;;;;;5072965;28;20168;-75
2022/01/26 00:09:30;;;;;;;105.72;43.03;;;3.90;99.90;;;;;;5072412;28;20048;-75
2022/01/26 00:11:56;;;;;;;99.88;41.85;;;3.90;99.90;;;;;;5072890;28;20445;-74
2022/01/26 00:14:22;;;;;;;105.70;44.67;;;3.90;99.90;;;;;;5072341;28;20537;-75
2022/01/26 00:16:48;;;;;;;102.60;41.42;;;3.90;99.90;;;;;;5071758;28;20052;-75
2022/01/26 00:19:20;;;;;;;106.30;44.08;;;3.90;99.90;;;;;;5072206;28;20040;-75
2022/01/26 00:21:52;;;;;;;101.35;41.55;;;3.90;99.90;;;;;;5073029;28;20024;-75
2022/01/26 00:24:47;;;;;;;105.13;42.28;;;4.00;99.90;;;;;;5072222;28;20064;-75
2022/01/26 00:27:24;;;;;;;108.93;43.33;;;4.00;99.90;;;;;;5071959;28;20039;-75
2022/01/26 00:30:00;;;;;;;103.60;42.70;;;4.00;99.90;;;;;;5072481;28;20078;-75
2022/01/26 00:40:50;;;;;;;95.28;40.38;;;3.90;99.90;;;;;;5090321;28;20032;-75
2022/01/26 00:43:26;;;;;;;93.00;40.47;;;4.00;99.90;;;;;;5071550;28;20392;-75
2022/01/26 00:45:56;;;;;;;97.90;39.67;;;4.00;99.90;;;;;;5072301;28;20036;-75
2022/01/26 00:48:23;;;;;;;94.97;39.30;;;4.00;99.90;;;;;;5072385;28;20032;-75
2022/01/26 00:50:53;;;;;;;99.22;41.75;;;4.00;99.90;;;;;;5072001;28;20115;-75
2022/01/26 00:53:23;;;;;;;95.53;39.28;;;3.90;99.90;;;;;;5072268;28;20021;-75
2022/01/26 00:55:48;;;;;;;88.95;39.28;;;4.00;99.90;;;;;;5072830;28;20029;-75
2022/01/26 00:58:14;;;;;;;102.35;40.13;;;4.00;99.90;;;;;;5071675;28;20029;-75
2022/01/26 01:00:39;;;;;;;94.60;41.28;;;4.00;99.90;;;;;;5072589;28;20121;-76
2022/01/26 01:03:05;;;;;;;95.55;39.75;;;4.00;99.90;;;;;;5072078;28;20063;-76
2022/01/26 01:05:40;;;;;;;90.25;39.42;;;4.00;99.90;;;;;;5072671;28;20124;-75
2022/01/26 01:08:11;;;;;;;93.57;40.63;;;4.00;99.90;;;;;;5075643;28;20067;-75
2022/01/26 01:10:37;;;;;;;96.38;39.50;;;4.00;99.90;;;;;;5076543;28;20028;-75
2022/01/26 01:13:06;;;;;;;96.05;40.10;;;4.00;99.90;;;;;;5075147;28;20035;-75
2022/01/26 01:15:31;;;;;;;97.25;41.90;;;4.00;99.90;;;;;;5076519;28;20039;-75
2022/01/26 01:18:13;;;;;;;99.57;42.63;;;4.00;99.90;;;;;;5075833;28;20021;-75
2022/01/26 01:28:48;;;;;;;96.28;39.55;;;4.10;99.90;;;;;;5075466;28;20436;-75
2022/01/26 01:31:17;;;;;;;96.88;42.55;;;4.00;99.90;;;;;;5075366;28;20403;-75
2022/01/26 01:33:46;;;;;;;96.93;41.58;;;4.00;99.90;;;;;;5077335;28;20074;-75
2022/01/26 01:36:12;;;;;;;100.82;41.70;;;4.00;99.90;;;;;;5077602;28;20097;-75
2022/01/26 01:38:41;;;;;;;94.40;40.42;;;4.10;99.90;;;;;;5079122;28;20024;-74
2022/01/26 01:41:07;;;;;;;99.45;40.25;;;4.00;99.90;;;;;;5079072;28;20031;-75
2022/01/26 01:43:33;;;;;;;98.35;40.72;;;4.10;99.90;;;;;;5075734;28;20024;-74
2022/01/26 01:45:59;;;;;;;103.68;41.15;;;4.00;99.90;;;;;;5075484;28;20073;-75
2022/01/26 01:48:29;;;;;;;99.82;41.60;;;4.10;99.90;;;;;;5074895;28;20077;-75
2022/01/26 01:50:57;;;;;;;100.85;43.22;;;4.00;99.90;;;;;;5076094;28;20499;-75
2022/01/26 01:53:31;;;;;;;103.13;42.72;;;4.00;99.90;;;;;;5074703;28;20480;-74
2022/01/26 01:55:59;;;;;;;102.30;42.30;;;4.00;99.90;;;;;;5074878;28;20048;-75
2022/01/26 01:58:25;;;;;;;94.18;39.63;;;4.00;99.90;;;;;;5075131;28;20059;-75
2022/01/26 02:00:51;;;;;;;97.63;39.88;;;4.00;99.90;;;;;;5074435;28;20023;-75
2022/01/26 02:03:16;;;;;;;108.90;40.70;;;4.00;99.90;;;;;;5074984;28;20032;-75
2022/01/26 02:05:42;;;;;;;101.15;41.35;;;3.90;99.90;;;;;;5075475;28;20032;-75
2022/01/26 02:08:08;;;;;;;105.72;43.88;;;4.00;99.90;;;;;;5076002;28;20103;-74
2022/01/26 02:10:35;;;;;;;101.78;41.22;;;4.00;99.90;;;;;;5075089;28;20025;-74
2022/01/26 02:13:05;;;;;;;99.28;40.75;;;3.90;99.90;;;;;;5074835;28;20033;-75
2022/01/26 02:15:40;;;;;;;104.07;41.83;;;4.00;99.90;;;;;;5074226;28;20039;-75
2022/01/26 02:51:35;;;;;;;113.82;43.35;;;4.10;99.90;;;;;;5076406;28;20047;-73
2022/01/26 02:56:50;;;;;;;106.90;44.67;;;3.90;99.90;;;;;;5074548;28;20048;-75
2022/01/26 03:01:58;;;;;;;106.53;41.00;;;4.10;99.90;;;;;;5074308;28;20081;-75
2022/01/26 03:04:33;;;;;;;111.45;44.95;;;4.10;99.90;;;;;;5072933;28;20431;-75
2022/01/26 03:07:21;;;;;;;110.82;42.05;;;4.00;99.90;;;;;;5073386;28;20068;-75
2022/01/26 03:09:56;;;;;;;111.60;45.13;;;4.00;99.90;;;;;;5073448;28;20108;-75
2022/01/26 03:12:33;;;;;;;109.65;43.28;;;4.00;99.90;;;;;;5072586;28;20529;-75
2022/01/26 03:15:08;;;;;;;111.47;43.03;;;4.00;99.90;;;;;;5073575;28;20094;-75
2022/01/26 03:20:12;;;;;;;108.53;42.92;;;4.00;99.90;;;;;;5073388;28;20464;-76
2022/01/26 03:35:46;;;;;;;111.72;42.22;;;4.10;99.90;;;;;;5075715;28;20028;-75
2022/01/26 03:38:26;;;;;;;109.38;43.00;;;4.10;99.90;;;;;;5073383;28;20444;-75
2022/01/26 03:41:34;;;;;;;113.65;44.85;;;4.10;99.90;;;;;;5084111;28;20032;-75
2022/01/26 03:43:44;;;;;;;106.07;42.38;;;4.10;99.90;;;;;;5069688;28;20104;-75
2022/01/26 03:46:10;;;;;;;110.45;42.85;;;4.10;99.90;;;;;;5071997;28;20563;-75
2022/01/26 03:48:36;;;;;;;115.60;43.08;;;4.10;99.90;;;;;;5073170;28;20070;-74
2022/01/26 03:51:01;;;;;;;106.75;41.47;;;4.00;99.90;;;;;;5073204;28;20037;-74
2022/01/26 03:53:28;;;;;;;116.63;43.35;;;4.00;99.90;;;;;;5072629;28;20449;-75
2022/01/26 03:55:54;;;;;;;113.75;44.25;;;4.00;99.90;;;;;;5072603;28;20432;-76
2022/01/26 03:58:19;;;;;;;120.85;44.13;;;4.00;99.90;;;;;;5072427;28;20043;-75
2022/01/26 04:00:45;;;;;;;116.38;45.28;;;4.00;99.90;;;;;;5072345;28;20392;-74
2022/01/26 04:03:11;;;;;;;118.15;44.97;;;4.00;99.90;;;;;;5072065;28;20480;-75
2022/01/26 04:05:36;;;;;;;122.88;45.50;;;4.10;99.90;;;;;;5072272;28;20178;-75
2022/01/26 04:08:09;;;;;;;115.00;44.42;;;4.10;99.90;;;;;;5071946;28;20049;-75
2022/01/26 04:10:52;;;;;;;114.20;44.00;;;4.00;99.90;;;;;;5072677;28;20059;-75
2022/01/26 04:13:17;;;;;;;117.68;44.03;;;4.10;99.90;;;;;;5072484;28;20480;-75
2022/01/26 04:15:43;;;;;;;122.25;43.63;;;4.10;99.90;;;;;;5072106;28;20093;-75
2022/01/26 04:18:13;;;;;;;108.68;41.38;;;4.10;99.90;;;;;;5072234;28;20028;-75
2022/01/26 04:20:43;;;;;;;114.38;43.60;;;4.00;99.90;;;;;;5071691;28;20473;-74
2022/01/26 04:23:15;;;;;;;120.38;43.08;;;4.00;99.90;;;;;;5071327;28;20029;-75
2022/01/26 04:25:44;;;;;;;118.03;45.15;;;4.00;99.90;;;;;;5072073;28;20496;-75
2022/01/26 04:28:15;;;;;;;115.28;44.13;;;4.00;99.90;;;;;;5071375;28;20528;-74
2022/01/26 04:30:41;;;;;;;117.13;43.95;;;4.00;99.90;;;;;;5072204;28;20505;-74
2022/01/26 04:33:07;;;;;;;124.53;46.20;;;4.00;99.90;;;;;;5073698;28;20029;-75
2022/01/26 04:35:33;;;;;;;120.55;45.83;;;4.00;99.90;;;;;;5071396;28;20036;-75
2022/01/26 04:38:17;;;;;;;119.22;46.22;;;4.00;99.90;;;;;;5071965;28;20029;-75
2022/01/26 04:43:36;;;;;;;120.78;44.72;;;4.00;99.90;;;;;;5044046;28;20135;-75
2022/01/26 04:46:02;;;;;;;122.68;46.30;;;4.00;99.90;;;;;;5072727;28;20066;-75
2022/01/26 04:48:28;;;;;;;124.10;47.30;;;4.00;99.90;;;;;;5072322;28;20539;-75
2022/01/26 04:50:54;;;;;;;123.70;45.70;;;4.00;99.90;;;;;;5071383;28;20025;-75
2022/01/26 04:53:20;;;;;;;123.43;45.45;;;4.10;99.90;;;;;;5071735;28;20067;-75
2022/01/26 04:55:46;;;;;;;124.93;45.72;;;4.10;99.90;;;;;;5072279;28;20391;-75
2022/01/26 04:58:12;;;;;;;123.22;46.25;;;4.20;99.90;;;;;;5071273;28;20021;-75
2022/01/26 05:00:38;;;;;;;132.60;46.92;;;4.20;99.90;;;;;;5072536;28;20416;-75
2022/01/26 05:03:04;;;;;;;124.03;44.53;;;4.20;99.90;;;;;;5071067;28;20029;-75
2022/01/26 05:05:30;;;;;;;128.15;47.72;;;4.20;99.90;;;;;;5072105;28;20028;-75
2022/01/26 05:07:55;;;;;;;125.97;45.88;;;4.10;99.90;;;;;;5072378;28;20041;-75
2022/01/26 05:10:21;;;;;;;121.20;45.25;;;4.10;99.90;;;;;;5071166;28;20029;-75
2022/01/26 05:12:47;;;;;;;128.13;46.50;;;4.20;99.90;;;;;;5072083;28;20027;-75
2022/01/26 05:15:12;;;;;;;123.35;43.70;;;4.10;99.90;;;;;;5071667;28;20392;-75
2022/01/26 05:17:39;;;;;;;121.47;45.28;;;4.10;99.90;;;;;;5071589;28;20510;-75
2022/01/26 05:20:07;;;;;;;126.80;46.30;;;4.10;99.90;;;;;;5071748;28;20033;-75
2022/01/26 05:22:33;;;;;;;115.15;43.08;;;4.10;99.90;;;;;;5071755;28;20115;-76
2022/01/26 05:24:59;;;;;;;125.50;46.53;;;4.10;99.90;;;;;;5071128;28;20128;-75
2022/01/26 05:27:27;;;;;;;122.15;44.85;;;4.10;99.90;;;;;;5079912;28;20089;-75
2022/01/26 05:29:53;;;;;;;120.57;45.42;;;4.10;99.90;;;;;;5072734;28;20031;-75
2022/01/26 05:32:19;;;;;;;121.05;43.08;;;4.20;99.90;;;;;;5071161;28;20020;-74
2022/01/26 05:34:45;;;;;;;125.70;47.42;;;4.10;99.90;;;;;;5071561;28;20036;-75
2022/01/26 05:37:11;;;;;;;116.72;43.20;;;4.20;99.90;;;;;;5077460;28;20028;-74
2022/01/26 05:39:38;;;;;;;122.13;45.38;;;4.10;99.90;;;;;;5071917;28;20174;-74
2022/01/26 05:42:05;;;;;;;116.88;44.22;;;4.20;99.90;;;;;;5084288;28;20033;-75
2022/01/26 05:44:30;;;;;;;120.72;43.80;;;4.20;99.90;;;;;;5073400;28;20036;-75
2022/01/26 05:46:56;;;;;;;120.40;42.80;;;4.20;99.90;;;;;;5071516;28;20020;-75
2022/01/26 05:49:22;;;;;;;116.82;43.83;;;4.20;99.90;;;;;;5071501;28;20538;-75
2022/01/26 05:51:47;;;;;;;118.35;44.55;;;4.30;99.90;;;;;;5073184;28;20528;-75
2022/01/26 05:54:15;;;;;;;119.72;42.08;;;4.30;99.90;;;;;;5074620;28;20048;-73
2022/01/26 05:56:42;;;;;;;111.32;42.97;;;4.30;99.90;;;;;;5075363;28;20103;-75
2022/01/26 05:59:11;;;;;;;113.97;44.40;;;4.30;99.90;;;;;;5075283;28;20028;-76
2022/01/26 06:01:36;;;;;;;124.32;44.50;;;4.30;99.90;;;;;;5074437;28;20028;-75
2022/01/26 06:04:03;;;;;;;106.45;40.78;;;4.40;99.90;;;;;;5075236;28;20396;-75
2022/01/26 06:06:28;;;;;;;120.25;43.72;;;4.30;99.90;;;;;;5074426;28;20067;-75
2022/01/26 06:08:54;;;;;;;112.60;43.65;;;4.30;99.90;;;;;;5074916;28;20480;-75
2022/01/26 06:11:19;;;;;;;113.50;40.72;;;4.30;99.90;;;;;;5074504;28;20472;-75
2022/01/26 06:13:45;;;;;;;109.75;43.80;;;4.30;99.90;;;;;;5074121;28;20027;-75
2022/01/26 06:16:14;;;;;;;116.13;40.10;;;4.40;99.90;;;;;;5075088;28;20031;-75
2022/01/26 06:18:39;;;;;;;119.88;46.53;;;4.40;99.90;;;;;;5075186;28;20426;-75
2022/01/26 06:21:07;;;;;;;121.68;43.33;;;4.50;99.90;;;;;;5074462;28;20029;-76
2022/01/26 06:23:33;;;;;;;109.43;43.47;;;4.40;99.90;;;;;;5074825;28;20028;-76
2022/01/26 06:25:58;;;;;;;116.38;42.03;;;4.50;99.90;;;;;;5074644;28;20036;-76
2022/01/26 06:28:27;;;;;;;116.72;43.13;;;4.40;99.90;;;;;;5073885;28;20013;-76
2022/01/26 06:30:59;;;;;;;120.10;43.47;;;4.40;99.90;;;;;;5074859;28;20029;-75
2022/01/26 06:33:26;;;;;;;115.47;44.20;;;4.40;99.90;;;;;;5075149;28;20388;-76
2022/01/26 06:35:51;;;;;;;108.20;41.58;;;4.40;99.90;;;;;;5074936;28;20028;-76
2022/01/26 06:38:17;;;;;;;107.95;39.08;;;4.50;99.90;;;;;;5075180;28;20029;-75
2022/01/26 06:40:43;;;;;;;110.40;39.33;;;4.40;99.90;;;;;;5075615;28;20479;-75
2022/01/26 06:43:12;;;;;;;97.63;37.60;;;4.40;99.90;;;;;;5073551;28;20027;-75
2022/01/26 06:45:51;;;;;;;95.57;38.20;;;4.40;99.90;;;;;;5074239;28;20419;-75
2022/01/26 06:51:03;;;;;;;80.78;35.05;;;4.40;99.90;;;;;;5076306;28;20542;-75
2022/01/26 06:53:29;;;;;;;77.40;32.53;;;4.40;99.90;;;;;;5074460;28;20082;-75
2022/01/26 06:55:55;;;;;;;73.63;32.03;;;4.40;99.90;;;;;;5073538;28;20488;-74
2022/01/26 06:58:20;;;;;;;76.28;31.60;;;4.40;99.90;;;;;;5073472;28;20423;-75
2022/01/26 07:00:46;;;;;;;75.65;33.20;;;4.40;99.90;;;;;;5075365;28;20024;-73
2022/01/26 07:03:12;;;;;;;73.60;30.13;;;4.40;99.90;;;;;;5089095;28;20477;-75
2022/01/26 07:05:41;;;;;;;73.82;34.75;;;4.40;99.90;;;;;;5088234;28;20035;-75
2022/01/26 07:08:06;;;;;;;80.05;34.83;;;4.30;99.90;;;;;;5092191;28;20044;-75
2022/01/26 07:10:32;;;;;;;85.45;37.10;;;4.30;99.90;;;;;;5092587;28;20039;-74
2022/01/26 07:12:58;;;;;;;88.72;37.05;;;4.20;99.90;;;;;;5092975;28;20070;-75
2022/01/26 07:23:42;;;;;;;84.10;36.97;;;4.20;99.90;;;;;;5089583;28;20387;-74
2022/01/26 07:26:08;;;;;;;76.30;34.90;;;4.20;99.90;;;;;;5083740;28;20040;-74
2022/01/26 07:28:37;;;;;;;82.93;38.80;;;4.10;99.90;;;;;;5099144;28;20012;-74
2022/01/26 07:31:04;;;;;;;81.38;36.08;;;4.20;99.90;;;;;;5097545;28;20036;-76
2022/01/26 07:33:30;;;;;;;84.53;36.65;;;4.20;99.90;;;;;;5091981;28;20024;-74
2022/01/26 07:35:56;;;;;;;78.10;34.80;;;4.20;99.90;;;;;;5091965;28;20032;-74
2022/01/26 07:38:21;;;;;;;85.18;36.72;;;4.20;99.90;;;;;;5089556;28;20365;-76
2022/01/26 07:40:47;;;;;;;79.40;35.83;;;4.20;99.90;;;;;;5083923;28;20037;-74
2022/01/26 07:43:14;;;;;;;78.70;34.88;;;4.20;99.90;;;;;;5096118;28;20061;-74
2022/01/26 07:45:41;;;;;;;77.72;35.10;;;4.20;99.90;;;;;;5094707;28;20119;-74
2022/01/26 07:48:07;;;;;;;78.18;29.85;;;4.20;99.90;;;;;;5089932;28;20020;-75
2022/01/26 07:50:33;;;;;;;67.40;29.48;;;4.20;99.90;;;;;;5091756;28;20490;-75
2022/01/26 07:53:00;;;;;;;71.82;32.50;;;4.30;99.90;;;;;;5086578;28;20463;-81
2022/01/26 07:55:25;;;;;;;80.53;33.22;;;4.30;99.90;;;;;;5083500;28;20036;-78
2022/01/26 07:57:52;;;;;;;77.47;32.17;;;4.30;99.90;;;;;;5089911;28;20020;-80
2022/01/26 08:00:19;;;;;;;83.50;34.88;;;4.30;99.90;;;;;;5090497;28;20032;-78
2022/01/26 08:02:45;;;;;;;79.95;36.25;;;4.20;99.90;;;;;;5085513;28;20052;-80
2022/01/26 08:05:13;;;;;;;83.32;34.45;;;4.20;99.90;;;;;;5088219;28;20035;-80
2022/01/26 08:07:38;;;;;;;78.43;34.13;;;4.20;99.90;;;;;;5074890;28;20093;-79
2022/01/26 08:10:06;;;;;;;85.90;35.33;;;4.20;99.90;;;;;;5078113;28;20032;-83
2022/01/26 08:12:33;;;;;;;56.95;23.70;;;4.30;99.90;;;;;;5093871;28;20016;-83
2022/01/26 08:14:59;;;;;;;78.38;34.63;;;4.30;99.90;;;;;;5088613;28;20093;-85
2022/01/26 08:17:25;;;;;;;81.30;34.42;;;4.30;99.90;;;;;;5078653;28;20476;-85
2022/01/26 08:19:55;;;;;;;76.57;34.45;;;4.30;99.90;;;;;;5091684;28;20028;-86
2022/01/26 08:22:26;;;;;;;79.22;34.38;;;4.40;99.90;;;;;;5087694;28;20028;-86
2022/01/26 08:24:55;;;;;;;79.15;36.25;;;4.40;99.90;;;;;;5090483;28;20190;-87
2022/01/26 08:27:22;;;;;;;78.32;36.25;;;4.40;99.90;;;;;;5094083;28;20024;-86
2022/01/26 08:29:52;;;;;;;74.75;31.90;;;4.40;99.90;;;;;;5089507;28;20036;-85
2022/01/26 08:32:17;;;;;;;70.68;29.38;;;4.40;99.90;;;;;;5091158;28;20066;-85
2022/01/26 08:34:43;;;;;;;65.72;29.00;;;4.40;99.90;;;;;;5096013;28;20020;-83
2022/01/26 08:37:09;;;;;;;67.95;27.90;;;4.40;99.90;;;;;;5086595;28;20467;-88
2022/01/26 08:39:35;;;;;;;69.25;30.70;;;4.50;99.90;;;;;;5079879;28;20038;-84
2022/01/26 08:42:02;;;;;;;65.63;28.63;;;4.50;99.90;;;;;;5081848;28;20008;-86
2022/01/26 08:44:28;;;;;;;67.45;28.27;;;4.40;99.90;;;;;;5087396;28;20110;-86
2022/01/26 08:46:54;;;;;;;64.75;28.77;;;4.40;99.90;;;;;;5081724;28;20025;-86
2022/01/26 08:49:21;;;;;;;70.15;30.08;;;4.40;99.90;;;;;;5077585;28;20028;-86
2022/01/26 08:51:49;;;;;;;79.65;30.08;;;4.50;99.90;;;;;;5087617;28;20028;-88
2022/01/26 08:54:16;;;;;;;70.38;28.83;;;4.60;99.90;;;;;;5092166;28;20062;-84
2022/01/26 08:56:41;;;;;;;65.90;28.50;;;4.60;99.90;;;;;;5105007;28;20054;-87
2022/01/26 08:59:07;;;;;;;67.45;28.20;;;4.60;99.90;;;;;;5106733;28;20032;-80
2022/01/26 09:01:33;;;;;;;68.50;29.30;;;4.40;99.90;;;;;;5096881;28;20024;-87
2022/01/26 09:03:58;;;;;;;64.70;27.42;;;4.60;99.90;;;;;;5097902;28;20024;-82
2022/01/26 09:06:24;;;;;;;69.15;29.60;;;4.60;99.90;;;;;;5096490;28;20031;-83
2022/01/26 09:09:00;;;;;;;73.18;29.23;;;4.60;99.90;;;;;;5097562;28;20073;-86
2022/01/26 09:11:26;;;;;;;64.90;28.05;;;4.60;99.90;;;;;;5096036;28;20086;-86
2022/01/26 09:13:57;;;;;;;63.67;28.58;;;4.60;99.90;;;;;;5097456;28;20028;-77
2022/01/26 09:16:26;;;;;;;63.42;27.63;;;4.60;99.90;;;;;;5097510;28;20111;-84
2022/01/26 09:18:56;;;;;;;64.55;26.70;;;4.60;99.90;;;;;;5106762;28;20020;-84
2022/01/26 09:21:24;;;;;;;;;;;4.60;99.90;;;;;;5100744;28;20036;-80
2022/01/26 09:23:49;;;;;;;65.03;27.42;;;4.60;99.90;;;;;;5091744;28;19999;-75
2022/01/26 09:26:15;;;;;;;63.13;27.25;;;4.60;99.90;;;;;;5092951;28;20450;-77
2022/01/26 09:28:41;;;;;;;75.07;33.58;;;4.60;99.90;;;;;;5096646;28;20032;-78
2022/01/26 09:31:07;;;;;;;63.10;28.92;;;4.70;99.90;;;;;;5095790;28;20024;-77
2022/01/26 09:33:33;;;;;;;61.20;26.38;;;4.70;99.90;;;;;;5097580;28;20028;-76
2022/01/26 09:35:58;;;;;;;56.95;23.58;;;4.70;99.90;;;;;;5096190;28;20475;-71
2022/01/26 09:38:24;;;;;;;65.22;24.80;;;4.80;99.90;;;;;;5096037;28;20028;-81
2022/01/26 09:40:50;;;;;;;63.25;25.42;;;4.80;99.90;;;;;;5098605;28;20024;-81
2022/01/26 09:43:17;;;;;;;66.47;23.50;;;4.80;99.90;;;;;;5097663;28;20020;-83
2022/01/26 09:45:44;;;;;;;60.10;22.95;;;4.80;99.90;;;;;;5102701;28;20128;-81
2022/01/26 09:48:11;;;;;;;55.47;24.52;;;4.80;99.90;;;;;;5098621;28;20024;-84
2022/01/26 09:50:37;;;;;;;65.57;25.70;;;4.80;99.90;;;;;;5098669;28;20460;-84
2022/01/26 09:53:03;;;;;;;60.65;24.55;;;5.00;99.90;;;;;;5082666;28;20032;-84
2022/01/26 09:55:29;;;;;;;70.85;25.33;;;4.90;99.90;;;;;;5078302;28;20036;-85
2022/01/26 09:57:58;;;;;;;57.15;25.25;;;5.00;99.90;;;;;;5078963;28;20020;-85
2022/01/26 10:00:28;;;;;;;62.35;24.33;;;4.90;99.90;;;;;;5079201;28;20147;-85
2022/01/26 10:03:02;;;;;;;68.30;25.60;;;5.00;99.90;;;;;;5082759;28;20380;-85
2022/01/26 10:05:44;;;;;;;54.30;25.25;;;5.00;99.90;;;;;;5104197;28;20070;-86
2022/01/26 10:17:02;;;;;;;53.65;23.38;;;5.00;99.90;;;;;;5125843;28;20128;-85
2022/01/26 10:19:18;;;;;;;49.17;24.60;;;5.20;99.90;;;;;;5119017;28;20039;-83
2022/01/26 10:21:45;;;;;;;65.35;26.45;;;5.10;99.90;;;;;;5119172;28;20027;-86
2022/01/26 10:24:11;;;;;;;53.33;23.65;;;5.20;99.90;;;;;;5119526;28;20470;-85
2022/01/26 10:26:37;;;;;;;56.92;23.17;;;5.20;99.90;;;;;;5101753;28;20139;-79
2022/01/26 10:29:04;;;;;;;56.95;24.33;;;5.20;99.90;;;;;;5079003;28;20046;-81
2022/01/26 10:31:31;;;;;;;59.95;25.08;;;5.20;99.90;;;;;;5075991;28;20028;-82
2022/01/26 10:34:04;;;;;;;58.72;24.92;;;5.30;99.90;;;;;;5081801;28;20035;-82
2022/01/26 10:36:40;;;;;;;53.95;24.10;;;5.30;99.90;;;;;;5095651;28;20027;-80
2022/01/26 10:39:24;;;;;;;54.83;23.85;;;5.40;99.90;;;;;;5094843;28;20024;-80
2022/01/26 10:41:53;;;;;;;67.13;25.02;;;5.40;99.90;;;;;;5088885;28;20134;-82
2022/01/26 10:44:44;;;;;;;57.90;24.67;;;5.40;99.90;;;;;;5075270;28;20486;-81
2022/01/26 10:47:10;;;;;;;;;;;5.50;99.90;;;;;;5081046;28;20032;-84
2022/01/26 10:52:34;;;;;;;53.40;23.75;;;5.50;99.90;;;;;;5095765;28;20442;-79
2022/01/26 10:54:59;;;;;;;54.63;22.67;;;5.60;99.90;;;;;;5098956;28;20063;-80
2022/01/26 10:57:25;;;;;;;49.40;22.95;;;5.60;99.90;;;;;;5095702;28;20028;-80
2022/01/26 10:59:51;;;;;;;47.20;22.58;;;5.60;99.90;;;;;;5095192;28;20055;-81
2022/01/26 11:02:26;;;;;;;49.78;22.80;;;5.60;99.90;;;;;;5095158;28;20020;-80
2022/01/26 11:04:52;;;;;;;53.38;22.63;;;5.70;99.90;;;;;;5103265;28;20138;-81
2022/01/26 11:07:18;;;;;;;49.03;21.95;;;5.80;99.90;;;;;;5098294;28;20048;-79
2022/01/26 11:09:46;;;;;;;53.35;23.02;;;5.90;99.90;;;;;;5094030;28;20126;-79
2022/01/26 11:12:13;;;;;;;46.75;23.15;;;7.10;99.90;;;;;;5094633;28;20605;-79
2022/01/26 11:14:42;;;;;;;44.67;21.60;;;6.00;99.90;;;;;;5094828;28;20039;-81
2022/01/26 11:17:10;;;;;;;45.40;22.75;;;6.10;99.90;;;;;;5093422;28;20016;-79
2022/01/26 11:19:43;;;;;;;46.83;21.95;;;6.10;99.90;;;;;;5095412;28;20028;-76
2022/01/26 11:22:11;;;;;;;54.60;22.40;;;6.10;99.90;;;;;;5095890;28;20586;-81
2022/01/26 11:24:47;;;;;;;44.22;19.92;;;6.20;99.90;;;;;;5100038;28;20032;-82
2022/01/26 11:27:16;;;;;;;53.97;21.83;;;6.20;99.90;;;;;;5094633;28;20028;-83
2022/01/26 11:29:46;;;;;;;52.15;21.50;;;6.20;99.90;;;;;;5094229;28;20111;-83
2022/01/26 11:32:35;;;;;;;55.20;23.05;;;6.20;99.90;;;;;;5097296;28;20024;-82
2022/01/26 11:35:08;;;;;;;48.35;20.80;;;6.30;99.90;;;;;;5097628;28;20028;-83
2022/01/26 11:37:43;;;;;;;48.55;23.23;;;6.30;99.90;;;;;;5094341;28;20436;-83
2022/01/26 11:45:34;;;;;;;54.15;22.35;;;6.40;99.90;;;;;;5096273;28;20441;-80
2022/01/26 11:48:20;;;;;;;43.92;19.88;;;6.40;99.90;;;;;;5095068;28;20081;-82
2022/01/26 11:51:00;;;;;;;49.53;21.73;;;6.40;99.90;;;;;;5084130;28;20075;-82
2022/01/26 11:53:27;;;;;;;46.13;20.95;;;6.40;99.90;;;;;;5093001;28;20107;-81
2022/01/26 11:56:01;;;;;;;54.85;22.25;;;6.40;99.90;;;;;;5093328;28;20557;-83
2022/01/26 11:58:45;;;;;;;48.25;21.20;;;6.50;99.90;;;;;;5092292;28;20036;-82
2022/01/26 12:01:27;;;;;;;48.08;21.20;;;6.50;99.90;;;;;;5092761;28;20519;-81
2022/01/26 12:03:59;;;;;;;42.08;19.88;;;6.60;99.90;;;;;;5092979;28;20107;-81
2022/01/26 12:06:34;;;;;;;43.65;20.58;;;6.60;99.90;;;;;;5084971;28;20043;-81
2022/01/26 12:09:00;;;;;;;51.30;22.50;;;6.60;99.90;;;;;;5074965;28;20096;-82
2022/01/26 12:11:29;;;;;;;47.00;19.27;;;6.60;99.90;;;;;;5084185;28;20334;-82
2022/01/26 12:14:00;;;;;;;45.67;20.58;;;6.50;99.90;;;;;;5073574;28;20027;-82
2022/01/26 12:16:40;;;;;;;43.28;20.15;;;6.60;99.90;;;;;;5078780;28;20028;-82
2022/01/26 12:33:31;;;;;;;43.40;19.00;;;6.60;99.90;;;;;;5088615;28;20069;-82
2022/01/26 12:38:33;;;;;;;38.17;18.88;;;6.70;99.90;;;;;;5073375;28;20460;-80
2022/01/26 12:43:55;;;;;;;40.55;17.83;;;6.70;99.90;;;;;;5075352;28;20036;-80
2022/01/26 12:46:24;;;;;;;39.05;17.98;;;6.80;99.90;;;;;;5074447;28;20055;-74
2022/01/26 12:48:54;;;;;;;37.75;17.85;;;6.80;99.90;;;;;;5071975;28;20128;-78
2022/01/26 12:51:20;;;;;;;31.38;17.35;;;6.80;99.90;;;;;;5074703;28;20024;-80
2022/01/26 12:53:55;;;;;;;35.55;16.92;;;6.80;99.90;;;;;;5079046;28;20048;-80
2022/01/26 12:56:24;;;;;;;33.30;16.48;;;6.80;99.90;;;;;;5074035;28;20161;-79
2022/01/26 12:59:03;;;;;;;34.60;15.18;;;6.80;99.90;;;;;;5077705;28;20368;-80
2022/01/26 13:01:29;;;;;;;30.02;15.30;;;6.80;99.90;;;;;;5091133;28;20016;-79
2022/01/26 13:03:58;;;;;;;33.25;16.88;;;6.80;99.90;;;;;;5086516;28;20030;-78
2022/01/26 13:06:27;;;;;;;31.30;16.52;;;6.80;99.90;;;;;;5077350;28;20052;-79
2022/01/26 13:08:59;;;;;;;32.53;16.65;;;6.70;99.90;;;;;;5076057;28;20128;-78
2022/01/26 13:11:33;;;;;;;33.25;16.60;;;6.80;99.90;;;;;;5081589;28;20048;-81
2022/01/26 13:14:15;;;;;;;35.25;16.52;;;6.80;99.90;;;;;;5080253;28;20036;-82
2022/01/26 13:16:54;;;;;;;37.15;16.85;;;6.80;99.90;;;;;;5077048;28;20395;-82
2022/01/26 13:25:12;;;;;;;33.67;17.42;;;6.90;99.90;;;;;;5096089;28;20369;-82
2022/01/26 13:30:31;;;;;;;34.77;17.60;;;6.90;99.90;;;;;;5087866;28;20012;-82
2022/01/26 13:35:38;;;;;;;29.70;17.23;;;6.90;99.90;;;;;;5094285;28;20083;-82
2022/01/26 13:46:45;;;;;;;30.75;14.90;;;6.70;99.90;;;;;;5093877;28;20036;-81
2022/01/26 13:51:40;;;;;;;32.10;16.35;;;6.70;99.90;;;;;;5098378;28;20097;-82
2022/01/26 13:59:50;;;;;;;36.85;17.48;;;6.70;99.90;;;;;;5096035;28;20035;-82
2022/01/26 14:02:16;;;;;;;37.42;19.33;;;6.70;99.90;;;;;;5096405;28;20037;-80
2022/01/26 14:04:41;;;;;;;39.58;18.92;;;6.70;99.90;;;;;;5095951;28;20021;-82
2022/01/26 14:07:07;;;;;;;46.10;19.77;;;6.70;99.90;;;;;;5089403;28;20050;-83
2022/01/26 14:09:33;;;;;;;43.30;20.45;;;6.70;99.90;;;;;;5081503;28;20276;-75
2022/01/26 14:12:00;;;;;;;42.05;20.92;;;6.70;99.90;;;;;;5093262;28;20123;-80
2022/01/26 14:14:32;;;;;;;49.78;23.45;;;6.70;99.90;;;;;;5094987;28;20032;-81
2022/01/26 14:17:01;;;;;;;59.75;23.92;;;6.70;99.90;;;;;;5096035;28;20102;-81
2022/01/26 14:25:02;;;;;;;50.13;23.48;;;6.60;99.90;;;;;;5095982;28;20535;-81
2022/01/26 14:27:37;;;;;;;53.95;22.70;;;6.50;99.90;;;;;;5095663;28;20472;-80
2022/01/26 14:30:22;;;;;;;46.08;21.95;;;6.50;99.90;;;;;;5095544;28;20028;-81
2022/01/26 14:40:47;;;;;;;51.50;24.30;;;6.50;99.90;;;;;;5095060;28;20395;-81
2022/01/26 14:54:43;;;;;;;53.67;27.08;;;6.30;99.90;;;;;;5095116;28;20048;-80
2022/01/26 15:00:11;;;;;;;61.80;26.48;;;6.20;99.90;;;;;;5096593;28;20111;-80
2022/01/26 15:30:03;;;;;;;59.60;28.40;;;6.00;99.90;;;;;;5095708;28;20074;-78
2022/01/26 15:59:17;;;;;;;63.63;31.52;;;5.80;99.90;;;;;;5093411;28;20486;-79
2022/01/26 16:16:29;;;;;;;65.40;30.27;;;5.70;99.90;;;;;;5093507;28;20031;-80
2022/01/26 16:21:18;;;;;;;63.55;30.42;;;5.70;99.90;;;;;;5093916;28;20450;-79
2022/01/26 17:02:35;;;;;;;66.63;30.67;;;5.50;99.90;;;;;;5092713;28;20085;-80
2022/01/26 18:13:21;;;;;;;53.83;25.70;;;5.50;99.90;;;;;;5100765;28;20514;-79
2022/01/26 18:15:59;;;;;;;54.17;24.58;;;5.50;99.90;;;;;;5099843;28;20020;-79
2022/01/26 18:40:27;;;;;;;55.22;27.02;;;5.60;99.90;;;;;;5078518;28;22094;-78
2022/01/26 18:50:47;;;;;;;62.38;28.83;;;5.60;99.90;;;;;;5077857;28;20063;-78
2022/01/26 18:53:13;;;;;;;58.05;27.15;;;5.60;99.90;;;;;;5082954;28;20064;-77
2022/01/26 18:55:46;;;;;;;56.17;26.27;;;5.60;99.90;;;;;;5078695;28;20025;-78
2022/01/26 18:58:11;;;;;;;63.33;28.42;;;5.60;99.90;;;;;;5076616;28;20387;-78
2022/01/26 19:00:37;;;;;;;65.43;28.13;;;5.50;99.90;;;;;;5076176;28;20020;-78
2022/01/26 19:03:06;;;;;;;64.80;29.55;;;5.50;99.90;;;;;;5076229;28;20461;-80
2022/01/26 19:05:32;;;;;;;53.85;24.98;;;5.60;99.90;;;;;;5076238;28;20097;-79
2022/01/26 19:07:58;;;;;;;70.13;29.63;;;5.60;99.90;;;;;;5072573;28;20052;-78
2022/01/26 19:10:24;;;;;;;59.22;27.33;;;5.60;99.90;;;;;;5078089;28;20063;-78
2022/01/26 19:12:50;;;;;;;58.65;27.60;;;5.60;99.90;;;;;;5075794;28;20501;-79